Home > Products > Valid Products > SSM

000
SMZS01 NSTU 241202
SSMPPG
AAXX 24124
91765 32566 21606 10276 20231 30097 40100 58010 82100 333 10301
56300 58000 555 92412=




000
SMZS01 NSTU 240555
SSMPPG
AAXX 24064
91765 32566 21606 10280 20224 30086 40090 53012 82100 333 56300
70000 555 92406=




000
SMZS01 NSTU 232349
SSMPPG
AAXX 24004
91765 32569 11205 10300 20235 30091 40095 57019 81100 333 20242
563// 59012 555 92400=




000
SMZS01 NSTU 231754
SSMPPG
AAXX 23184
91765 32566 43203 10242 20225 30098 40102 52008 82170 333 5679/ 555
92318=




000
SMZS01 NSTU 231158
SSMPPG
AAXX 23124
91765 32566 81408 10273 20232 30097 40100 57015 84178 333 10295
56399 59005 555 92312=




000
SAZS31 NSTU 231100
SSMPPG
METAR NSTU 231052Z 11003KT 10SM SCT023 BKN100 OVC200 27/23 A2985 RMK
SLP108 T02670231 402950231=




000
SMZS01 NSTU 230604
SSMPPG
AAXX 23064
91765 32569 80000 10261 20228 30098 40102 53008 83178 333 56199
70000 555 92306=




000
SMZS01 NSTU 222352
SSMPPG
AAXX 23004
91765 32569 71305 10295 20230 30103 40107 57015 82156 333 20231
56399 59012 555 92300=




000
SMZS01 NSTU 221756
SSMPPG
AAXX 22184
91765 32569 73003 10234 20219 30108 40112 52010 82171 333 56799 555
92218=




000
SMZS01 NSTU 221207
SSMPPG
AAXX 22124
91765 32566 21106 10269 20221 30102 40105 57019 82100 333 10304
562// 59017 555 92212=




000
SMZS01 NSTU 220558
SSMPPG
AAXX 22064
91765 32969 01208 10277 20220 30105 40108 52007 333 70000 555 92206=





000
SMZS01 NSTU 220558
SSMPPG
AAXX 22064
91765 32969 01208 10277 20220 30105 40108 52007 333 70000 555 92206=




000
SMZS01 NSTU 211800
SSMPPG
AAXX 21184
91765 32566 51111 10275 20222 30119 40122 52010 85800 333 562// 555
92118=




    US Dept of Commerce
    National Oceanic and Atmospheric Administration
    National Weather Service
    1325 East West Highway
    Silver Spring, MD 20910
    Page Author: NWS Internet Services Team
Disclaimer
Information Quality
Credits
Glossary
Privacy Policy
Freedom of Information Act (FOIA)
About Us
Career Opportunities